createdAt,value
2024-04-23T00:01:58.855Z,102082.25
2024-04-23T00:04:03.699Z,102081.41
2024-04-23T00:06:08.629Z,102075.44
2024-04-23T00:08:10.827Z,102078.91
2024-04-23T00:10:15.626Z,102076.31
2024-04-23T00:12:17.953Z,102075.50
2024-04-23T00:14:22.761Z,102068.63
2024-04-23T00:16:25.008Z,102060.91
2024-04-23T00:18:27.309Z,102075.53
2024-04-23T00:20:32.374Z,102075.56
2024-04-23T00:22:37.200Z,102070.41
2024-04-23T00:24:42.020Z,102068.69
2024-04-23T00:26:52.715Z,102068.72
2024-04-23T00:28:57.571Z,102064.41
2024-04-23T00:30:59.807Z,102062.69
2024-04-23T00:33:07.642Z,102062.72
2024-04-23T00:35:09.986Z,102056.69
2024-04-23T00:37:14.778Z,102054.13
2024-04-23T00:39:19.556Z,102055.00
2024-04-23T00:41:24.340Z,102049.84
2024-04-23T00:43:26.567Z,102042.97
2024-04-23T00:45:35.354Z,102039.53
2024-04-23T00:47:37.606Z,102039.56
2024-04-23T00:49:42.550Z,102037.84
2024-04-23T00:51:50.625Z,102030.97
2024-04-23T00:53:55.887Z,102032.69
2024-04-23T00:56:00.878Z,102024.97
2024-04-23T00:58:06.155Z,102023.25
2024-04-23T01:00:09.033Z,102024.13
2024-04-23T01:02:13.813Z,102019.81
2024-04-23T01:04:15.964Z,102025.00
2024-04-23T01:06:20.934Z,102020.69
2024-04-23T01:08:23.226Z,102025.00
2024-04-23T01:10:28.185Z,102025.84
2024-04-23T01:12:33.147Z,102014.69
2024-04-23T01:14:41.190Z,102018.13
2024-04-23T01:16:46.230Z,102024.16
2024-04-23T01:18:51.832Z,102023.28
2024-04-23T01:20:58.897Z,102014.72
2024-04-23T01:23:10.147Z,102013.84
2024-04-23T01:25:15.080Z,102004.41
2024-04-23T01:27:23.466Z,102004.38
2024-04-23T01:29:27.056Z,102009.53
2024-04-23T01:31:29.380Z,102001.81
2024-04-23T01:33:34.504Z,101999.22
2024-04-23T01:35:37.251Z,101997.50
2024-04-23T01:37:44.698Z,101995.78
2024-04-23T01:39:47.150Z,101985.50
2024-04-23T01:41:52.360Z,101985.50
2024-04-23T01:43:57.754Z,101990.66
2024-04-23T01:46:04.652Z,101989.78
2024-04-23T01:48:08.680Z,101994.94
2024-04-23T01:50:13.572Z,101997.53
2024-04-23T01:52:16.295Z,101998.44
2024-04-23T01:54:21.146Z,102000.16
2024-04-23T01:56:23.432Z,101996.72
2024-04-23T01:58:28.318Z,102000.16
2024-04-23T02:00:37.221Z,101989.84
2024-04-23T02:02:44.278Z,101991.56
2024-04-23T02:04:47.333Z,101991.56
2024-04-23T02:06:53.089Z,101989.84
2024-04-23T02:08:56.119Z,101984.72
2024-04-23T02:11:01.540Z,101984.72
2024-04-23T02:13:05.673Z,101988.16
2024-04-23T02:15:11.245Z,101986.44
2024-04-23T02:17:18.326Z,101988.16
2024-04-23T02:19:23.285Z,101989.88
2024-04-23T02:21:25.456Z,101981.28
2024-04-23T02:23:30.230Z,101989.88
2024-04-23T02:25:32.546Z,101981.28
2024-04-23T02:27:37.337Z,101985.59
2024-04-23T02:29:39.468Z,101980.44
2024-04-23T02:31:44.311Z,101982.16
2024-04-23T02:33:49.830Z,101983.06
2024-04-23T02:35:54.667Z,101974.47
2024-04-23T02:37:56.980Z,101982.22
2024-04-23T02:40:04.693Z,101976.19
2024-04-23T02:42:08.468Z,101979.63
2024-04-23T02:44:13.231Z,101979.63
2024-04-23T02:46:15.432Z,101981.34
2024-04-23T02:48:20.267Z,101977.06
2024-04-23T02:50:25.134Z,101977.91
2024-04-23T02:52:30.024Z,101971.91
2024-04-23T02:54:32.279Z,101972.78
2024-04-23T02:56:37.122Z,101969.34
2024-04-23T02:58:39.378Z,101976.19
2024-04-23T03:00:44.202Z,101971.06
2024-04-23T03:02:46.537Z,101969.34
2024-04-23T03:04:51.449Z,101967.63
2024-04-23T03:06:56.291Z,101960.75
2024-04-23T03:09:01.025Z,101959.91
2024-04-23T03:11:03.356Z,101956.47
2024-04-23T03:13:08.448Z,101954.75
2024-04-23T03:15:10.737Z,101952.19
2024-04-23T03:17:15.536Z,101943.59
2024-04-23T03:19:17.761Z,101945.31
2024-04-23T03:21:22.556Z,101947.06
2024-04-23T03:23:27.340Z,101947.06
2024-04-23T03:25:32.204Z,101947.94
2024-04-23T03:27:34.393Z,101937.63
2024-04-23T03:29:39.209Z,101944.50
2024-04-23T03:31:41.490Z,101941.91
2024-04-23T03:33:47.086Z,101938.50
2024-04-23T03:35:49.295Z,101931.63
2024-04-23T03:37:54.167Z,101931.63
2024-04-23T03:39:59.050Z,101929.91
2024-04-23T03:42:04.522Z,101929.91
2024-04-23T03:44:06.819Z,101930.78
2024-04-23T03:46:11.630Z,101918.75
2024-04-23T03:48:16.490Z,101920.47
2024-04-23T03:50:18.913Z,101922.19
2024-04-23T03:52:27.530Z,101922.19
2024-04-23T03:54:29.786Z,101924.75
2024-04-23T03:56:37.144Z,101923.91
2024-04-23T03:58:39.288Z,101926.47
2024-04-23T04:00:44.110Z,101913.59
2024-04-23T04:03:13.380Z,101915.31
2024-04-23T04:05:35.364Z,101911.88
2024-04-23T04:07:40.192Z,101916.19
2024-04-23T04:09:42.335Z,101925.63
2024-04-23T04:11:49.802Z,101918.75
2024-04-23T04:13:54.624Z,101922.16
2024-04-23T04:15:56.915Z,101914.41
2024-04-23T04:18:01.959Z,101924.69
2024-04-23T04:20:04.566Z,101926.41
2024-04-23T04:22:09.442Z,101921.22
2024-04-23T04:24:11.598Z,101926.31
2024-04-23T04:26:17.368Z,101916.84
2024-04-23T04:28:22.206Z,101929.72
2024-04-23T04:30:26.956Z,101925.34
2024-04-23T04:32:31.550Z,101924.44
2024-04-23T04:34:36.384Z,101920.97
2024-04-23T04:36:38.801Z,101917.44
2024-04-23T04:38:43.736Z,101914.81
2024-04-23T04:40:46.191Z,101912.19
2024-04-23T04:42:52.498Z,101910.38
2024-04-23T04:44:57.332Z,101910.31
2024-04-23T04:47:04.036Z,101916.25
2024-04-23T04:49:07.156Z,101917.03
2024-04-23T04:51:11.972Z,101911.81
2024-04-23T04:53:14.131Z,101904.81
2024-04-23T04:55:19.005Z,101904.78
2024-04-23T04:57:21.247Z,101897.81
2024-04-23T04:59:25.985Z,101905.50
2024-04-23T05:01:30.818Z,101903.69
2024-04-23T05:03:35.705Z,101903.63
2024-04-23T05:05:37.822Z,101899.28
2024-04-23T05:07:42.831Z,101899.25
2024-04-23T05:09:45.102Z,101897.53
2024-04-23T05:11:49.939Z,101901.78
2024-04-23T05:13:52.201Z,101900.94
2024-04-23T05:15:57.008Z,101895.75
2024-04-23T05:18:02.016Z,101901.75
2024-04-23T05:20:08.827Z,101897.34
2024-04-23T05:22:11.016Z,101900.75
2024-04-23T05:24:15.792Z,101889.50
2024-04-23T05:26:17.989Z,101894.56
2024-04-23T05:28:22.755Z,101897.03
2024-04-23T05:30:52.322Z,101894.31
2024-04-23T05:32:54.519Z,101900.97
2024-04-23T05:35:02.146Z,101892.19
2024-04-23T05:37:08.323Z,101894.53
2024-04-23T05:39:11.351Z,101897.75
2024-04-23T05:41:16.135Z,101900.09
2024-04-23T05:43:20.958Z,101909.31
2024-04-23T05:45:25.746Z,101895.34
2024-04-23T05:47:28.096Z,101894.38
2024-04-23T05:50:10.580Z,101897.63
2024-04-23T05:53:11.550Z,101910.41
2024-04-23T05:55:36.948Z,101910.25
2024-04-23T05:57:41.762Z,101901.44
2024-04-23T05:59:43.913Z,101896.09
2024-04-23T06:01:48.791Z,101891.56
2024-04-23T06:03:50.933Z,101890.41
2024-04-23T06:05:55.693Z,101888.41
2024-04-23T06:07:59.030Z,101898.50
2024-04-23T06:10:04.308Z,101897.41
2024-04-23T06:12:09.565Z,101892.88
2024-04-23T06:14:14.347Z,101896.25
2024-04-23T06:16:16.501Z,101893.53
2024-04-23T06:18:24.228Z,101889.16
2024-04-23T06:20:26.478Z,101891.66
2024-04-23T06:22:32.860Z,101890.72
2024-04-23T06:24:34.999Z,101887.13
2024-04-23T06:26:39.727Z,101887.00
2024-04-23T06:28:44.517Z,101882.56
2024-04-23T06:30:49.371Z,101879.88
2024-04-23T06:32:51.637Z,101880.69
2024-04-23T06:34:56.475Z,101880.59
2024-04-23T06:36:58.698Z,101872.66
2024-04-23T06:39:04.861Z,101866.53
2024-04-23T06:41:07.043Z,101869.97
2024-04-23T06:43:14.217Z,101860.44
2024-04-23T06:45:19.965Z,101862.13
2024-04-23T06:47:26.199Z,101862.09
2024-04-23T06:49:28.518Z,101863.75
2024-04-23T06:51:33.299Z,101875.03
2024-04-23T06:53:35.563Z,101865.63
2024-04-23T06:55:40.686Z,101860.50
2024-04-23T06:57:43.961Z,101857.94
2024-04-23T06:59:48.841Z,101845.81
2024-04-23T07:01:53.784Z,101853.59
2024-04-23T07:03:58.724Z,101851.88
2024-04-23T07:06:00.929Z,101847.66
2024-04-23T07:08:05.796Z,101848.63
2024-04-23T07:10:09.299Z,101841.81
2024-04-23T07:12:14.119Z,101840.13
2024-04-23T07:14:16.279Z,101844.38
2024-04-23T07:16:21.088Z,101845.16
2024-04-23T07:18:26.102Z,101843.31
2024-04-23T07:20:30.980Z,101848.31
2024-04-23T07:22:33.268Z,101842.13
2024-04-23T07:24:38.124Z,101835.91
2024-04-23T07:26:40.974Z,101828.63
2024-04-23T07:28:45.836Z,101824.72
2024-04-23T07:30:50.283Z,101826.81
2024-04-23T07:32:56.432Z,101826.31
2024-04-23T07:35:01.517Z,101819.81
2024-04-23T07:37:06.635Z,101819.44
2024-04-23T07:39:09.534Z,101820.88
2024-04-23T07:41:16.252Z,101826.66
2024-04-23T07:43:18.583Z,101820.34
2024-04-23T07:45:23.644Z,101814.94
2024-04-23T07:47:25.947Z,101813.91
2024-04-23T07:49:30.865Z,101801.59
2024-04-23T07:51:35.714Z,101812.66
2024-04-23T07:53:40.480Z,101814.34
2024-04-23T07:55:42.721Z,101814.25
2024-04-23T07:57:48.179Z,101809.84
2024-04-23T07:59:50.800Z,101822.06
2024-04-23T08:01:55.701Z,101815.19
2024-04-23T08:03:57.893Z,101805.88
2024-04-23T08:06:03.631Z,101804.34
2024-04-23T08:08:08.822Z,101803.72
2024-04-23T08:10:18.568Z,101798.66
2024-04-23T08:12:20.783Z,101800.28
2024-04-23T08:14:25.575Z,101795.81
2024-04-23T08:16:27.887Z,101795.63
2024-04-23T08:18:35.054Z,101786.84
2024-04-23T08:20:39.556Z,101794.50
2024-04-23T08:22:45.939Z,101785.72
2024-04-23T08:24:50.748Z,101788.97
2024-04-23T08:26:55.591Z,101783.53
2024-04-23T08:28:57.940Z,101786.13
2024-04-23T08:31:00.152Z,101777.47
2024-04-23T08:33:05.061Z,101780.91
2024-04-23T08:35:07.695Z,101778.22
2024-04-23T08:37:13.139Z,101773.81
2024-04-23T08:39:15.327Z,101767.69
2024-04-23T08:41:25.181Z,101766.84
2024-04-23T08:43:32.576Z,101762.41
2024-04-23T08:45:41.663Z,101771.88
2024-04-23T08:47:44.651Z,101764.84
2024-04-23T08:49:50.925Z,101769.81
2024-04-23T08:51:53.299Z,101757.31
2024-04-23T08:53:58.745Z,101759.75
2024-04-23T08:56:06.275Z,101744.84
2024-04-23T08:58:14.506Z,101752.50
2024-04-23T09:00:17.154Z,101741.03
2024-04-23T09:02:30.095Z,101739.13
2024-04-23T09:04:33.570Z,101737.06
2024-04-23T09:06:38.828Z,101729.91
2024-04-23T09:08:41.352Z,101733.00
2024-04-23T09:10:46.651Z,101736.81
2024-04-23T09:12:50.009Z,101726.84
2024-04-23T09:14:59.183Z,101725.38
2024-04-23T09:17:02.465Z,101722.97
2024-04-23T09:19:07.296Z,101723.56
2024-04-23T09:21:10.063Z,101721.84
2024-04-23T09:23:14.882Z,101712.41
2024-04-23T09:25:17.212Z,101716.78
2024-04-23T09:27:22.041Z,101706.19
2024-04-23T09:29:29.156Z,101707.66
2024-04-23T09:31:39.441Z,101701.41
2024-04-23T09:33:52.524Z,101697.75
2024-04-23T09:36:06.685Z,101694.91
2024-04-23T09:38:09.157Z,101700.63
2024-04-23T09:40:14.621Z,101704.81
2024-04-23T09:42:23.786Z,101683.94
2024-04-23T09:44:29.128Z,101694.25
2024-04-23T09:46:35.536Z,101684.47
2024-04-23T09:48:41.159Z,101685.13
2024-04-23T09:50:43.470Z,101686.44
2024-04-23T09:52:48.304Z,101687.03
2024-04-23T09:54:50.586Z,101683.44
2024-04-23T09:57:04.182Z,101673.78
2024-04-23T09:59:11.538Z,101661.63
2024-04-23T10:01:19.447Z,101657.13
2024-04-23T10:03:25.652Z,101663.53
2024-04-23T10:05:31.539Z,101645.50
2024-04-23T10:07:40.976Z,101647.53
2024-04-23T10:09:46.440Z,101648.53
2024-04-23T10:11:54.448Z,101645.13
2024-04-23T10:14:05.960Z,101638.31
2024-04-23T10:16:10.450Z,101634.47
2024-04-23T10:18:22.324Z,101641.34
2024-04-23T10:20:38.768Z,101626.69
2024-04-23T10:22:44.428Z,101637.25
2024-04-23T10:24:47.858Z,101626.78
2024-04-23T10:26:53.282Z,101627.41
2024-04-23T10:28:57.526Z,101626.13
2024-04-23T10:31:02.988Z,101616.94
2024-04-23T10:33:09.192Z,101614.03
2024-04-23T10:35:17.525Z,101610.03
2024-04-23T10:37:22.878Z,101608.34
2024-04-23T10:39:28.451Z,101604.94
2024-04-23T10:41:34.693Z,101594.63
2024-04-23T10:43:40.087Z,101593.06
2024-04-23T10:45:42.724Z,101591.84
2024-04-23T10:47:56.869Z,101589.31
2024-04-23T10:50:07.154Z,101584.25
2024-04-23T10:52:12.332Z,101584.59
2024-04-23T10:54:21.470Z,101583.38
2024-04-23T10:56:27.367Z,101577.91
2024-04-23T10:58:29.566Z,101572.66
2024-04-23T11:00:38.700Z,101570.16
2024-04-23T11:02:41.127Z,101579.72
2024-04-23T11:04:49.470Z,101572.53
2024-04-23T11:07:02.493Z,101582.91
2024-04-23T11:09:23.556Z,101575.00
2024-04-23T11:11:26.182Z,101564.44
2024-04-23T11:13:29.887Z,101566.78
2024-04-23T11:15:35.341Z,101559.38
2024-04-23T11:17:41.859Z,101555.34
2024-04-23T11:19:49.036Z,101549.47
2024-04-23T11:21:52.974Z,101540.88
2024-04-23T11:23:59.708Z,101546.22
2024-04-23T11:26:04.998Z,101549.63
2024-04-23T11:28:10.428Z,101547.78
2024-04-23T11:30:14.984Z,101543.34
2024-04-23T11:32:20.638Z,101546.66
2024-04-23T11:34:24.398Z,101540.44
2024-04-23T11:36:29.522Z,101545.53
2024-04-23T11:38:42.049Z,101543.69
2024-04-23T11:40:48.208Z,101542.91
2024-04-23T11:42:53.108Z,101525.41
2024-04-23T11:44:59.998Z,101519.19
2024-04-23T11:47:02.720Z,101518.97
2024-04-23T11:49:07.565Z,101518.66
2024-04-23T11:51:10.649Z,101526.34
2024-04-23T11:53:15.649Z,101520.78
2024-04-23T11:55:19.336Z,101518.72
2024-04-23T11:57:24.998Z,101516.63
2024-04-23T11:59:33.108Z,101501.41
2024-04-23T12:01:39.873Z,101508.81
2024-04-23T12:03:42.289Z,101507.47
2024-04-23T12:05:45.097Z,101501.03
2024-04-23T12:07:50.613Z,101507.88
2024-04-23T12:09:54.809Z,101501.81
2024-04-23T12:12:00.247Z,101501.81
2024-04-23T12:14:02.569Z,101496.72
2024-04-23T12:16:13.060Z,101493.47
2024-04-23T12:18:15.750Z,101483.16
2024-04-23T12:20:21.198Z,101480.66
2024-04-23T12:22:23.491Z,101478.69
2024-04-23T12:24:31.005Z,101478.19
2024-04-23T12:26:34.062Z,101465.13
2024-04-23T12:28:40.899Z,101455.50
2024-04-23T12:30:44.040Z,101454.50
2024-04-23T12:32:53.216Z,101456.28
2024-04-23T12:34:56.968Z,101448.50
2024-04-23T12:37:02.223Z,101440.53
2024-04-23T12:39:11.663Z,101429.22
2024-04-23T12:41:19.288Z,101427.81
2024-04-23T12:43:23.006Z,101423.41
2024-04-23T12:45:27.932Z,101421.72
2024-04-23T12:47:30.499Z,101415.72
2024-04-23T12:49:39.910Z,101415.16
2024-04-23T12:51:42.277Z,101404.94
2024-04-23T12:53:47.040Z,101408.41
2024-04-23T12:55:49.283Z,101415.25
2024-04-23T12:57:54.158Z,101409.16
2024-04-23T12:59:56.358Z,101404.19
2024-04-23T13:02:01.437Z,101400.13
2024-04-23T13:04:03.679Z,101410.94
2024-04-23T13:06:11.191Z,101399.88
2024-04-23T13:08:18.620Z,101401.00
2024-04-23T13:10:28.542Z,101398.38
2024-04-23T13:12:32.707Z,101391.53
2024-04-23T13:14:37.597Z,101395.16
2024-04-23T13:16:46.556Z,101391.09
2024-04-23T13:18:53.844Z,101394.13
2024-04-23T13:20:56.166Z,101386.41
2024-04-23T13:23:03.852Z,101384.00
2024-04-23T13:25:09.136Z,101387.63
2024-04-23T13:27:13.927Z,101373.25
2024-04-23T13:29:16.264Z,101381.50
2024-04-23T13:31:21.205Z,101382.88
2024-04-23T13:33:23.730Z,101370.19
2024-04-23T13:35:28.709Z,101363.66
2024-04-23T13:37:31.014Z,101360.53
2024-04-23T13:39:40.113Z,101360.03
2024-04-23T13:41:42.484Z,101366.50
2024-04-23T13:43:47.534Z,101352.19
2024-04-23T13:45:49.902Z,101339.63
2024-04-23T13:47:54.813Z,101335.63
2024-04-23T13:49:57.058Z,101328.88
2024-04-23T13:52:01.926Z,101321.94
2024-04-23T13:54:04.424Z,101322.78
2024-04-23T13:56:12.614Z,101318.25
2024-04-23T13:58:14.973Z,101305.78
2024-04-23T14:00:20.177Z,101310.69
2024-04-23T14:02:23.821Z,101305.09
2024-04-23T14:04:28.962Z,101304.03
2024-04-23T14:06:31.395Z,101302.00
2024-04-23T14:08:36.278Z,101288.94
2024-04-23T14:10:38.613Z,101284.53
2024-04-23T14:12:47.445Z,101286.31
2024-04-23T14:14:49.656Z,101281.91
2024-04-23T14:16:54.712Z,101281.84
2024-04-23T14:18:56.943Z,101271.13
2024-04-23T14:21:03.454Z,101271.72
2024-04-23T14:23:05.927Z,101261.56
2024-04-23T14:25:11.126Z,101260.31
2024-04-23T14:27:13.438Z,101255.50
2024-04-23T14:29:21.036Z,101246.19
2024-04-23T14:31:23.356Z,101250.75
2024-04-23T14:33:28.258Z,101250.19
2024-04-23T14:35:30.439Z,101248.19
2024-04-23T14:37:35.260Z,101245.13
2024-04-23T14:39:37.468Z,101237.59
2024-04-23T14:41:44.076Z,101233.75
2024-04-23T14:43:49.915Z,101230.88
2024-04-23T14:45:57.523Z,101232.72
2024-04-23T14:48:01.310Z,101219.72
2024-04-23T14:50:08.543Z,101218.03
2024-04-23T14:52:11.167Z,101218.41
2024-04-23T14:54:16.103Z,101209.97
2024-04-23T14:56:19.446Z,101209.31
2024-04-23T14:58:24.309Z,101200.03
2024-04-23T15:00:26.522Z,101207.25
2024-04-23T15:02:33.999Z,101201.44
2024-04-23T15:04:36.307Z,101195.75
2024-04-23T15:06:41.750Z,101185.78
2024-04-23T15:08:44.070Z,101186.88
2024-04-23T15:10:49.596Z,101176.59
2024-04-23T15:12:51.770Z,101175.09
2024-04-23T15:14:57.506Z,101177.91
2024-04-23T15:17:00.192Z,101168.44
2024-04-23T15:19:07.764Z,101166.66
2024-04-23T15:21:11.500Z,101162.28
2024-04-23T15:23:16.658Z,101156.03
2024-04-23T15:25:18.821Z,101154.16
2024-04-23T15:27:23.724Z,101141.91
2024-04-23T15:29:25.875Z,101145.56
2024-04-23T15:31:30.667Z,101137.97
2024-04-23T15:33:34.797Z,101138.22
2024-04-23T15:35:42.510Z,101134.16
2024-04-23T15:37:44.685Z,101127.34
2024-04-23T15:39:49.601Z,101129.38
2024-04-23T15:41:51.790Z,101121.81
2024-04-23T15:43:56.599Z,101128.06
2024-04-23T15:45:59.432Z,101124.66
2024-04-23T15:48:04.312Z,101123.16
2024-04-23T15:50:07.780Z,101119.94
2024-04-23T15:52:15.255Z,101114.13
2024-04-23T15:54:17.533Z,101112.66
2024-04-23T15:56:22.408Z,101113.75
2024-04-23T15:58:24.736Z,101107.16
2024-04-23T16:00:30.122Z,101110.88
2024-04-23T16:02:33.763Z,101104.97
2024-04-23T16:04:39.682Z,101101.75
2024-04-23T16:06:41.851Z,101110.72
2024-04-23T16:08:49.584Z,101107.59
2024-04-23T16:10:51.887Z,101105.38
2024-04-23T16:12:56.677Z,101099.63
2024-04-23T16:14:58.870Z,101090.47
2024-04-23T16:17:03.738Z,101082.94
2024-04-23T16:19:06.188Z,101075.28
2024-04-23T16:21:12.395Z,101080.50
2024-04-23T16:23:14.819Z,101078.81
2024-04-23T16:25:22.850Z,101069.03
2024-04-23T16:27:25.276Z,101068.78
2024-04-23T16:29:30.737Z,101072.00
2024-04-23T16:31:33.070Z,101057.72
2024-04-23T16:33:39.204Z,101050.66
2024-04-23T16:35:41.665Z,101049.63
2024-04-23T16:37:46.486Z,101037.34
2024-04-23T16:39:50.681Z,101035.31
2024-04-23T16:41:58.613Z,101033.28
2024-04-23T16:44:00.961Z,101022.66
2024-04-23T16:46:06.811Z,101026.03
2024-04-23T16:48:09.684Z,101036.28
2024-04-23T16:50:14.995Z,101027.50
2024-04-23T16:52:18.283Z,101011.81
2024-04-23T16:54:24.558Z,101019.59
2024-04-23T16:56:27.151Z,101023.63
2024-04-23T16:58:38.671Z,101016.53
2024-04-23T17:01:50.934Z,101012.16
2024-04-23T17:03:57.854Z,101002.53
2024-04-23T17:06:01.330Z,101002.53
2024-04-23T17:08:07.046Z,100995.78
2024-04-23T17:10:09.506Z,100992.59
2024-04-23T17:12:14.466Z,100991.06
2024-04-23T17:14:20.341Z,100979.22
2024-04-23T17:16:25.454Z,100987.41
2024-04-23T17:18:28.095Z,100978.97
2024-04-23T17:20:33.531Z,100978.31
2024-04-23T17:22:35.926Z,100976.78
2024-04-23T17:24:40.760Z,100973.63
2024-04-23T17:26:43.040Z,100967.78
2024-04-23T17:28:48.997Z,100960.22
2024-04-23T17:30:53.905Z,100964.94
2024-04-23T17:32:58.864Z,100958.25
2024-04-23T17:35:01.269Z,100959.47
2024-04-23T17:37:07.939Z,100958.88
2024-04-23T17:39:10.064Z,100952.13
2024-04-23T17:41:15.652Z,100956.75
2024-04-23T17:43:18.350Z,100951.78
2024-04-23T17:45:29.659Z,100945.13
2024-04-23T17:47:38.870Z,100938.53
2024-04-23T17:49:45.372Z,100937.94
2024-04-23T17:51:47.544Z,100935.66
2024-04-23T17:53:54.491Z,100942.88
2024-04-23T17:56:00.652Z,100941.47
2024-04-23T17:58:05.532Z,100927.72
2024-04-23T18:00:09.380Z,100929.56
2024-04-23T18:02:20.774Z,100924.50
2024-04-23T18:04:26.779Z,100935.13
2024-04-23T18:06:32.100Z,100951.78
2024-04-23T18:08:35.617Z,100942.50
2024-04-23T18:10:41.888Z,100952.44
2024-04-23T18:12:47.946Z,100954.44
2024-04-23T18:14:54.678Z,100966.16
2024-04-23T18:16:57.660Z,100975.56
2024-04-23T18:19:02.515Z,100977.56
2024-04-23T18:21:08.386Z,100981.53
2024-04-23T18:23:13.420Z,100994.94
2024-04-23T18:25:16.674Z,100991.88
2024-04-23T18:27:20.866Z,100988.00
2024-04-23T18:29:25.687Z,100984.78
2024-04-23T18:31:27.963Z,100992.59
2024-04-23T18:33:33.462Z,100975.03
2024-04-23T18:35:35.725Z,100979.00
2024-04-23T18:37:44.873Z,100973.34
2024-04-23T18:39:47.147Z,100965.00
2024-04-23T18:41:51.961Z,100958.41
2024-04-23T18:43:54.782Z,100958.66
2024-04-23T18:46:02.006Z,100951.03
2024-04-23T18:48:04.991Z,100950.38
2024-04-23T18:50:10.761Z,100947.06
2024-04-23T18:52:12.903Z,100947.06
2024-04-23T18:54:20.288Z,100941.00
2024-04-23T18:56:22.429Z,100934.97
2024-04-23T18:58:27.330Z,100933.28
2024-04-23T19:00:30.047Z,100930.69
2024-04-23T19:02:35.190Z,100921.19
2024-04-23T19:04:37.429Z,100924.59
2024-04-23T19:06:44.199Z,100928.09
2024-04-23T19:08:48.772Z,100933.28
2024-04-23T19:10:56.241Z,100926.41
2024-04-23T19:12:58.473Z,100932.59
2024-04-23T19:15:03.234Z,100936.94
2024-04-23T19:17:05.706Z,100935.25
2024-04-23T19:19:10.658Z,100941.28
2024-04-23T19:21:15.902Z,100935.25
2024-04-23T19:23:20.684Z,100926.63
2024-04-23T19:25:23.315Z,100923.16
2024-04-23T19:27:30.863Z,100923.16
2024-04-23T19:29:38.738Z,100912.78
2024-04-23T19:31:43.586Z,100923.16
2024-04-23T19:33:45.926Z,100912.78
2024-04-23T19:35:52.078Z,100917.97
2024-04-23T19:37:55.296Z,100909.41
2024-04-23T19:40:00.697Z,100897.31
2024-04-23T19:42:02.879Z,100896.53
2024-04-23T19:44:10.374Z,100895.69
2024-04-23T19:46:13.733Z,100897.44
2024-04-23T19:48:18.578Z,100892.31
2024-04-23T19:50:20.883Z,100884.53
2024-04-23T19:52:25.811Z,100880.16
2024-04-23T19:54:29.340Z,100880.16
2024-04-23T19:57:00.309Z,100886.22
2024-04-23T19:59:05.051Z,100872.38
2024-04-23T20:01:14.251Z,100868.94
2024-04-23T20:03:19.648Z,100876.66
2024-04-23T20:05:22.020Z,100877.56
2024-04-23T20:07:27.007Z,100873.28
2024-04-23T20:09:36.884Z,100869.91
2024-04-23T20:11:41.821Z,100868.22
2024-04-23T20:13:46.685Z,100863.03
2024-04-23T20:15:52.158Z,100861.34
2024-04-23T20:17:59.556Z,100849.25
2024-04-23T20:20:04.448Z,100844.97
2024-04-23T20:22:09.419Z,100850.09
2024-04-23T20:24:11.543Z,100833.69
2024-04-23T20:26:17.271Z,100834.47
2024-04-23T20:28:23.157Z,100838.75
2024-04-23T20:30:27.928Z,100826.66
2024-04-23T20:32:32.638Z,100830.06
2024-04-23T20:34:40.047Z,100831.75
2024-04-23T20:36:42.153Z,100835.25
2024-04-23T20:38:46.897Z,100820.50
2024-04-23T20:40:51.660Z,100824.00
2024-04-23T20:42:56.623Z,100823.16
2024-04-23T20:45:01.418Z,100819.78
2024-04-23T20:47:06.341Z,100823.28
2024-04-23T20:49:08.584Z,100819.06
2024-04-23T20:51:16.020Z,100817.38
2024-04-23T20:53:20.873Z,100816.59
2024-04-23T20:55:25.698Z,100807.19
2024-04-23T20:57:27.836Z,100804.59
2024-04-23T20:59:32.633Z,100808.88
2024-04-23T21:01:37.360Z,100811.47
2024-04-23T21:03:42.741Z,100806.28
2024-04-23T21:05:47.535Z,100802.91
2024-04-23T21:07:52.336Z,100786.56
2024-04-23T21:09:57.252Z,100792.66
2024-04-23T21:12:02.115Z,100792.78
2024-04-23T21:14:07.278Z,100787.59
2024-04-23T21:16:12.160Z,100785.84
2024-04-23T21:18:14.365Z,100789.28
2024-04-23T21:20:19.184Z,100780.72
2024-04-23T21:22:21.335Z,100780.72
2024-04-23T21:24:28.728Z,100780.72
2024-04-23T21:26:30.860Z,100773.84
2024-04-23T21:28:35.782Z,100772.16
2024-04-23T21:30:40.592Z,100773.06
2024-04-23T21:32:45.613Z,100772.22
2024-04-23T21:34:50.598Z,100761.88
2024-04-23T21:36:55.337Z,100757.66
2024-04-23T21:39:00.096Z,100765.53
2024-04-23T21:41:11.726Z,100763.88
2024-04-23T21:43:16.530Z,100758.75
2024-04-23T21:45:21.316Z,100758.88
2024-04-23T21:47:26.281Z,100751.16
2024-04-23T21:49:28.535Z,100763.38
2024-04-23T21:51:35.767Z,100748.78
2024-04-23T21:53:39.301Z,100754.88
2024-04-23T21:55:44.216Z,100749.75
2024-04-23T21:57:48.982Z,100741.13
2024-04-23T21:59:53.783Z,100746.31
2024-04-23T22:01:55.968Z,100743.72
2024-04-23T22:04:00.768Z,100740.28
2024-04-23T22:06:03.186Z,100744.63
2024-04-23T22:08:08.172Z,100735.16
2024-04-23T22:10:13.010Z,100737.03
2024-04-23T22:12:17.821Z,100721.66
2024-04-23T22:14:25.314Z,100718.28
2024-04-23T22:16:27.558Z,100721.91
2024-04-23T22:18:32.493Z,100713.31
2024-04-23T22:20:35.177Z,100709.00
2024-04-23T22:22:39.955Z,100715.03
2024-04-23T22:24:44.750Z,100702.94
2024-04-23T22:26:47.065Z,100699.59
2024-04-23T22:28:51.919Z,100692.72
2024-04-23T22:30:56.742Z,100699.72
2024-04-23T22:33:01.605Z,100694.53
2024-04-23T22:35:06.839Z,100689.34
2024-04-23T22:37:11.657Z,100687.66
2024-04-23T22:39:16.440Z,100688.56
2024-04-23T22:41:21.303Z,100688.56
2024-04-23T22:43:26.149Z,100683.38
2024-04-23T22:45:29.371Z,100681.63
2024-04-23T22:47:37.000Z,100679.09
2024-04-23T22:49:39.397Z,100683.50
2024-04-23T22:51:48.565Z,100677.53
2024-04-23T22:53:53.433Z,100677.53
2024-04-23T22:55:55.653Z,100675.78
2024-04-23T22:58:00.413Z,100676.63
2024-04-23T23:00:05.315Z,100674.03
2024-04-23T23:02:07.686Z,100669.69
2024-04-23T23:04:15.128Z,100671.38
2024-04-23T23:06:19.883Z,100661.84
2024-04-23T23:08:22.100Z,100656.59
2024-04-23T23:10:26.897Z,100652.25
2024-04-23T23:12:31.649Z,100646.22
2024-04-23T23:14:33.803Z,100641.88
2024-04-23T23:16:38.561Z,100643.63
2024-04-23T23:18:43.327Z,100641.03
2024-04-23T23:20:48.279Z,100635.84
2024-04-23T23:22:53.046Z,100636.69
2024-04-23T23:24:57.876Z,100630.72
2024-04-23T23:27:02.733Z,100626.38
2024-04-23T23:29:05.022Z,100623.00
2024-04-23T23:31:09.938Z,100629.09
2024-04-23T23:33:12.250Z,100620.53
2024-04-23T23:35:17.424Z,100620.47
2024-04-23T23:37:24.975Z,100610.13
2024-04-23T23:39:29.733Z,100611.78
2024-04-23T23:41:31.873Z,100613.47
2024-04-23T23:43:36.664Z,100611.78
2024-04-23T23:45:38.800Z,100606.59
2024-04-23T23:47:43.943Z,100610.13
2024-04-23T23:49:48.981Z,100610.13